Time;durP1;ratioP1;P1;durP2;ratioP2;P2;SDS_P1;SDS_P2;PMS_P1;PMS_P2;Temp;Humidity;BMP_temperature;BMP_pressure;BME280_temperature;BME280_humidity;BME280_pressure;Samples;Min_cycle;Max_cycle;Signal;HPM_P1;HPM_P2
2021/11/12 00:04:18;;;;;;;;;;;20.70;39.60;;;;;;481918;247;1052;-46
2021/11/12 00:13:19;;;;;;;;;;;20.70;39.60;;;;;;480557;248;1044;-46
2021/11/12 00:15:20;;;;;;;;;;;20.70;39.60;;;;;;481888;247;2607;-46
2021/11/12 00:17:21;;;;;;;;;;;20.70;39.60;;;;;;480160;248;1139;-46
2021/11/12 00:19:23;;;;;;;;;;;20.70;39.60;;;;;;481922;247;1248;-45
2021/11/12 00:21:24;;;;;;;;;;;20.70;39.70;;;;;;480109;248;1058;-46
2021/11/12 00:23:25;;;;;;;;;;;20.70;39.60;;;;;;482141;247;1310;-46
2021/11/12 00:25:27;;;;;;;;;;;20.70;39.70;;;;;;482235;247;1192;-46
2021/11/12 00:27:28;;;;;;;;;;;20.70;39.70;;;;;;482038;247;1050;-46
2021/11/12 00:29:29;;;;;;;;;;;20.70;39.70;;;;;;481940;247;2129;-46
2021/11/12 00:31:35;;;;;;;;;;;20.70;39.70;;;;;;482025;247;1098;-46
2021/11/12 00:33:47;;;;;;;;;;;20.70;39.70;;;;;;480244;248;2242;-46
2021/11/12 00:35:44;;;;;;;;;;;20.60;39.70;;;;;;481370;247;2025;-46
2021/11/12 00:38:05;;;;;;;;;;;20.70;39.70;;;;;;480171;248;1677;-46
2021/11/12 00:40:09;;;;;;;;;;;20.70;39.70;;;;;;481857;247;1528;-46
2021/11/12 00:42:11;;;;;;;;;;;20.60;39.70;;;;;;482227;247;2284;-46
2021/11/12 00:44:16;;;;;;;;;;;20.70;39.70;;;;;;480114;248;2170;-46
2021/11/12 00:46:18;;;;;;;;;;;20.70;39.60;;;;;;481680;247;2369;-46
2021/11/12 00:48:17;;;;;;;;;;;20.70;39.70;;;;;;481968;247;2365;-46
2021/11/12 00:50:41;;;;;;;;;;;20.70;39.70;;;;;;480590;248;2549;-46
2021/11/12 00:52:43;;;;;;;;;;;20.70;39.70;;;;;;481479;247;1993;-46
2021/11/12 00:54:42;;;;;;;;;;;20.60;39.70;;;;;;481944;247;2033;-47
2021/11/12 00:56:43;;;;;;;;;;;20.70;39.70;;;;;;480027;248;1117;-46
2021/11/12 00:58:44;;;;;;;;;;;20.60;39.70;;;;;;481937;247;1540;-46
2021/11/12 01:00:45;;;;;;;;;;;20.70;39.70;;;;;;480120;248;1061;-46
2021/11/12 01:02:47;;;;;;;;;;;20.70;39.60;;;;;;481901;247;1128;-46
2021/11/12 01:04:49;;;;;;;;;;;20.70;39.60;;;;;;482204;247;1030;-46
2021/11/12 01:06:49;;;;;;;;;;;20.70;39.60;;;;;;480074;248;2328;-46
2021/11/12 01:08:51;;;;;;;;;;;20.70;39.50;;;;;;481870;247;2188;-46
2021/11/12 01:10:52;;;;;;;;;;;20.70;39.60;;;;;;467819;255;1035;-46
2021/11/12 01:12:53;;;;;;;;;;;20.70;39.60;;;;;;480070;248;1215;-46
2021/11/12 01:14:55;;;;;;;;;;;20.70;39.70;;;;;;482128;247;1068;-46
2021/11/12 01:16:56;;;;;;;;;;;20.60;39.70;;;;;;480109;248;1118;-46
2021/11/12 01:18:57;;;;;;;;;;;20.70;39.80;;;;;;482237;247;1061;-46
2021/11/12 01:20:59;;;;;;;;;;;20.70;39.70;;;;;;480130;248;1022;-46
2021/11/12 01:23:00;;;;;;;;;;;20.70;39.80;;;;;;481894;247;1164;-46
2021/11/12 01:25:01;;;;;;;;;;;20.60;39.70;;;;;;480243;248;1222;-46
2021/11/12 01:27:02;;;;;;;;;;;20.70;39.80;;;;;;482044;247;1227;-46
2021/11/12 01:29:04;;;;;;;;;;;20.70;39.70;;;;;;480210;248;2202;-46
2021/11/12 01:31:05;;;;;;;;;;;20.70;39.60;;;;;;481837;247;1195;-46
2021/11/12 01:33:06;;;;;;;;;;;20.70;39.60;;;;;;480188;248;1262;-46
2021/11/12 01:35:09;;;;;;;;;;;20.70;39.70;;;;;;481906;247;1094;-47
2021/11/12 01:37:09;;;;;;;;;;;20.70;39.70;;;;;;480004;248;2296;-46
2021/11/12 01:39:10;;;;;;;;;;;20.70;39.70;;;;;;481933;247;1671;-46
2021/11/12 01:41:14;;;;;;;;;;;20.70;39.70;;;;;;481986;247;1473;-46
2021/11/12 01:43:16;;;;;;;;;;;20.70;39.70;;;;;;481865;247;2274;-46
2021/11/12 01:45:14;;;;;;;;;;;20.70;39.70;;;;;;481926;247;2100;-46
2021/11/12 01:47:20;;;;;;;;;;;20.70;39.60;;;;;;482246;247;1577;-46
2021/11/12 01:49:22;;;;;;;;;;;20.70;39.70;;;;;;481966;247;2191;-46
2021/11/12 01:51:24;;;;;;;;;;;20.70;39.70;;;;;;480341;248;2108;-46
2021/11/12 01:53:30;;;;;;;;;;;20.70;39.70;;;;;;482038;247;1826;-46
2021/11/12 01:55:40;;;;;;;;;;;20.70;39.80;;;;;;480237;248;2077;-46
2021/11/12 01:57:38;;;;;;;;;;;20.70;39.70;;;;;;481248;247;2104;-46
2021/11/12 01:59:36;;;;;;;;;;;20.70;39.70;;;;;;482399;247;2367;-47
2021/11/12 02:01:38;;;;;;;;;;;20.70;39.70;;;;;;480559;246;1377;-46
2021/11/12 02:03:39;;;;;;;;;;;20.60;39.70;;;;;;481905;247;1061;-46
2021/11/12 02:05:40;;;;;;;;;;;20.70;39.70;;;;;;480110;248;1024;-46
2021/11/12 02:07:42;;;;;;;;;;;20.70;39.70;;;;;;482250;247;1240;-46
2021/11/12 02:09:43;;;;;;;;;;;20.60;39.70;;;;;;480288;248;2190;-46
2021/11/12 02:11:45;;;;;;;;;;;20.60;39.70;;;;;;482073;247;1382;-46
2021/11/12 02:13:46;;;;;;;;;;;20.70;39.70;;;;;;481984;247;1615;-46
2021/11/12 02:15:47;;;;;;;;;;;20.60;39.70;;;;;;480341;248;1475;-46
2021/11/12 02:17:55;;;;;;;;;;;20.70;39.70;;;;;;481890;247;2249;-46
2021/11/12 02:19:51;;;;;;;;;;;20.60;39.70;;;;;;480557;248;1582;-46
2021/11/12 02:21:55;;;;;;;;;;;20.70;39.70;;;;;;481784;247;2417;-46
2021/11/12 02:23:57;;;;;;;;;;;20.70;39.70;;;;;;480370;248;2196;-46
2021/11/12 02:25:53;;;;;;;;;;;20.70;39.80;;;;;;481671;247;1548;-46
2021/11/12 02:27:57;;;;;;;;;;;20.70;39.70;;;;;;482350;247;1178;-46
2021/11/12 02:29:57;;;;;;;;;;;20.70;39.70;;;;;;480210;248;2227;-46
2021/11/12 02:31:58;;;;;;;;;;;20.60;39.70;;;;;;481903;247;1170;-46
2021/11/12 02:33:59;;;;;;;;;;;20.70;39.70;;;;;;480422;248;965;-47
2021/11/12 02:36:00;;;;;;;;;;;20.70;39.70;;;;;;481901;247;1025;-46
2021/11/12 02:38:03;;;;;;;;;;;20.60;39.70;;;;;;480601;248;1200;-46
2021/11/12 02:40:03;;;;;;;;;;;20.70;39.70;;;;;;481845;247;2268;-46
2021/11/12 02:42:05;;;;;;;;;;;20.70;39.60;;;;;;480473;248;1133;-46
2021/11/12 02:44:06;;;;;;;;;;;20.70;39.60;;;;;;482346;247;1042;-46
2021/11/12 02:46:07;;;;;;;;;;;20.70;39.70;;;;;;480516;248;1050;-46
2021/11/12 02:48:09;;;;;;;;;;;20.70;39.70;;;;;;482359;247;1373;-46
2021/11/12 02:50:11;;;;;;;;;;;20.70;39.70;;;;;;481938;247;2200;-46
2021/11/12 02:52:11;;;;;;;;;;;20.70;39.60;;;;;;481879;247;1422;-46
2021/11/12 02:54:13;;;;;;;;;;;20.70;39.60;;;;;;480311;248;1072;-46
2021/11/12 02:56:22;;;;;;;;;;;20.70;39.70;;;;;;481814;247;2147;-46
2021/11/12 02:58:15;;;;;;;;;;;20.70;39.70;;;;;;482278;247;2169;-46
2021/11/12 03:00:17;;;;;;;;;;;20.70;39.70;;;;;;480578;248;1074;-46
2021/11/12 03:02:18;;;;;;;;;;;20.60;39.60;;;;;;482157;247;1239;-45
2021/11/12 03:04:19;;;;;;;;;;;20.60;39.60;;;;;;480142;248;2350;-46
2021/11/12 03:06:21;;;;;;;;;;;20.70;39.70;;;;;;481957;247;1221;-45
2021/11/12 03:08:22;;;;;;;;;;;20.70;39.70;;;;;;480350;248;1118;-45
2021/11/12 03:10:24;;;;;;;;;;;20.60;39.60;;;;;;482058;247;2133;-46
2021/11/12 03:12:25;;;;;;;;;;;20.70;39.70;;;;;;480077;246;1262;-45
2021/11/12 03:14:26;;;;;;;;;;;20.70;39.60;;;;;;482323;247;1080;-45
2021/11/12 03:16:28;;;;;;;;;;;20.70;39.60;;;;;;480330;248;1130;-45
2021/11/12 03:18:29;;;;;;;;;;;20.70;39.70;;;;;;482073;247;2387;-45
2021/11/12 03:20:30;;;;;;;;;;;20.70;39.70;;;;;;480062;248;1087;-45
2021/11/12 03:22:35;;;;;;;;;;;20.60;39.60;;;;;;481826;247;1286;-46
2021/11/12 03:24:35;;;;;;;;;;;20.70;39.70;;;;;;480338;248;2197;-45
2021/11/12 03:26:39;;;;;;;;;;;20.60;39.60;;;;;;481894;247;2034;-46
2021/11/12 03:28:57;;;;;;;;;;;20.60;39.70;;;;;;482066;247;1636;-45
2021/11/12 03:31:20;;;;;;;;;;;20.60;39.70;;;;;;482093;247;2126;-46
2021/11/12 03:49:55;;;;;;;;;;;20.70;39.70;;;;;;476795;247;2184;-46
2021/11/12 03:56:36;;;;;;;;;;;20.70;39.70;;;;;;482176;247;1285;-46
2021/11/12 04:00:54;;;;;;;;;;;20.70;39.70;;;;;;480548;248;1254;-45
2021/11/12 04:03:02;;;;;;;;;;;20.70;39.70;;;;;;481799;247;1399;-46
2021/11/12 04:05:19;;;;;;;;;;;20.60;39.70;;;;;;480245;248;1959;-45
2021/11/12 04:07:27;;;;;;;;;;;20.60;39.60;;;;;;481566;247;2409;-45
2021/11/12 04:19:14;;;;;;;;;;;20.70;39.60;;;;;;475584;247;1203;-46
2021/11/12 04:21:37;;;;;;;;;;;20.70;39.70;;;;;;481891;247;1571;-45
2021/11/12 04:30:50;;;;;;;;;;;20.70;39.50;;;;;;480217;248;2131;-45
2021/11/12 04:40:18;;;;;;;;;;;20.70;39.60;;;;;;480189;248;1080;-45
2021/11/12 04:49:34;;;;;;;;;;;20.70;39.60;;;;;;481872;247;1054;-45
2021/11/12 05:10:23;;;;;;;;;;;20.70;39.60;;;;;;481894;247;2142;-46
2021/11/12 05:12:46;;;;;;;;;;;20.70;39.60;;;;;;479905;248;2065;-45
2021/11/12 05:33:35;;;;;;;;;;;20.70;39.50;;;;;;481728;247;2242;-45
2021/11/12 05:34:28;;;;;;;;;;;20.70;39.50;;;;;;481938;247;1784;-46
2021/11/12 05:45:55;;;;;;;;;;;20.70;39.50;;;;;;479918;248;1288;-45
2021/11/12 05:50:08;;;;;;;;;;;20.70;39.50;;;;;;481824;247;2119;-45
2021/11/12 05:55:03;;;;;;;;;;;20.70;39.60;;;;;;479891;248;2125;-45
2021/11/12 05:56:37;;;;;;;;;;;20.60;39.60;;;;;;479967;248;2275;-45
2021/11/12 05:58:38;;;;;;;;;;;20.60;39.50;;;;;;481732;247;1156;-46
2021/11/12 06:00:40;;;;;;;;;;;20.70;39.60;;;;;;479828;248;1098;-45
2021/11/12 06:02:41;;;;;;;;;;;20.70;39.60;;;;;;481639;247;1078;-45
2021/11/12 06:04:42;;;;;;;;;;;20.70;39.50;;;;;;480056;248;1129;-45
2021/11/12 06:06:44;;;;;;;;;;;20.70;39.50;;;;;;481736;247;1223;-45
2021/11/12 06:08:45;;;;;;;;;;;20.70;39.50;;;;;;479898;248;1045;-46
2021/11/12 06:10:46;;;;;;;;;;;20.70;39.50;;;;;;481699;247;2173;-45
2021/11/12 06:12:48;;;;;;;;;;;20.70;39.50;;;;;;480050;248;1277;-45
2021/11/12 06:14:49;;;;;;;;;;;20.70;39.50;;;;;;481727;247;2053;-45
2021/11/12 06:16:51;;;;;;;;;;;20.70;39.50;;;;;;479836;248;1330;-46
2021/11/12 06:18:53;;;;;;;;;;;20.70;39.50;;;;;;481678;247;2513;-45
2021/11/12 06:20:53;;;;;;;;;;;20.70;39.40;;;;;;479985;248;2151;-45
2021/11/12 06:22:54;;;;;;;;;;;20.70;39.40;;;;;;481823;247;1087;-45
2021/11/12 06:24:56;;;;;;;;;;;20.70;39.50;;;;;;480008;248;1065;-45
2021/11/12 06:26:57;;;;;;;;;;;20.70;39.50;;;;;;481629;247;2746;-46
2021/11/12 06:29:00;;;;;;;;;;;20.70;39.50;;;;;;479830;248;1467;-46
2021/11/12 06:31:00;;;;;;;;;;;20.70;39.50;;;;;;481497;247;2201;-46
2021/11/12 06:33:01;;;;;;;;;;;20.70;39.60;;;;;;479894;246;1195;-45
2021/11/12 06:35:03;;;;;;;;;;;20.70;39.50;;;;;;481601;247;1113;-45
2021/11/12 06:37:04;;;;;;;;;;;20.70;39.50;;;;;;479700;248;1081;-45
2021/11/12 06:39:08;;;;;;;;;;;20.70;39.50;;;;;;481642;247;1017;-46
2021/11/12 06:41:10;;;;;;;;;;;20.70;39.50;;;;;;481738;247;2048;-45
2021/11/12 06:43:21;;;;;;;;;;;20.70;39.50;;;;;;479992;248;1930;-45
2021/11/12 06:49:49;;;;;;;;;;;20.70;39.50;;;;;;481699;247;1013;-45
2021/11/12 06:51:41;;;;;;;;;;;20.70;39.50;;;;;;481640;247;2185;-46
2021/11/12 06:53:42;;;;;;;;;;;20.60;39.50;;;;;;480024;248;1158;-45
2021/11/12 06:55:44;;;;;;;;;;;20.60;39.60;;;;;;481798;247;1118;-46
2021/11/12 06:57:45;;;;;;;;;;;20.60;39.60;;;;;;479717;248;1166;-45
2021/11/12 06:59:47;;;;;;;;;;;20.60;39.60;;;;;;481601;247;1229;-45
2021/11/12 07:01:48;;;;;;;;;;;20.60;39.50;;;;;;479976;248;1194;-45
2021/11/12 07:03:50;;;;;;;;;;;20.70;39.50;;;;;;481584;247;1119;-46
2021/11/12 07:05:51;;;;;;;;;;;20.70;39.50;;;;;;479785;248;1054;-45
2021/11/12 07:07:53;;;;;;;;;;;20.70;39.50;;;;;;481734;247;1161;-45
2021/11/12 07:09:54;;;;;;;;;;;20.60;39.50;;;;;;481468;247;2372;-45
2021/11/12 07:11:55;;;;;;;;;;;20.60;39.50;;;;;;479638;248;2130;-45
2021/11/12 07:13:56;;;;;;;;;;;20.70;39.50;;;;;;481387;247;1266;-45
2021/11/12 07:15:57;;;;;;;;;;;20.70;39.40;;;;;;479619;248;1135;-46
2021/11/12 07:17:59;;;;;;;;;;;20.70;39.40;;;;;;481482;247;1044;-45
2021/11/12 07:20:00;;;;;;;;;;;20.70;39.30;;;;;;479629;248;1087;-45
2021/11/12 07:22:01;;;;;;;;;;;20.70;39.40;;;;;;481357;247;1187;-45
2021/11/12 07:24:03;;;;;;;;;;;20.70;39.40;;;;;;479623;248;1076;-45
2021/11/12 07:26:04;;;;;;;;;;;20.70;39.40;;;;;;481430;247;1293;-45
2021/11/12 07:28:06;;;;;;;;;;;20.70;39.40;;;;;;479691;248;1293;-45
2021/11/12 07:30:11;;;;;;;;;;;20.70;39.30;;;;;;481225;247;1436;-47
2021/11/12 07:32:08;;;;;;;;;;;20.70;39.30;;;;;;479358;248;2214;-46
2021/11/12 07:34:10;;;;;;;;;;;20.70;39.30;;;;;;481380;247;1193;-46
2021/11/12 07:36:17;;;;;;;;;;;20.70;39.30;;;;;;481441;247;1339;-46
2021/11/12 07:38:14;;;;;;;;;;;20.70;39.30;;;;;;481373;247;1987;-46
2021/11/12 07:40:23;;;;;;;;;;;20.70;39.30;;;;;;479725;248;1393;-46
2021/11/12 07:42:27;;;;;;;;;;;20.70;39.40;;;;;;481012;247;2461;-46
2021/11/12 07:44:38;;;;;;;;;;;20.70;39.30;;;;;;479229;248;1986;-46
2021/11/12 07:46:39;;;;;;;;;;;20.70;39.20;;;;;;480968;247;2128;-45
2021/11/12 07:48:39;;;;;;;;;;;20.80;39.20;;;;;;481224;247;1648;-45
2021/11/12 07:50:41;;;;;;;;;;;20.80;39.20;;;;;;481293;247;2503;-46
2021/11/12 07:52:42;;;;;;;;;;;20.80;39.10;;;;;;479341;248;1190;-46
2021/11/12 07:54:43;;;;;;;;;;;20.80;39.20;;;;;;481049;247;1216;-45
2021/11/12 07:56:45;;;;;;;;;;;20.80;39.20;;;;;;479850;241;1668;-45
2021/11/12 07:58:46;;;;;;;;;;;20.80;39.20;;;;;;481286;247;1667;-45
2021/11/12 08:00:47;;;;;;;;;;;20.80;39.10;;;;;;479551;248;1106;-45
2021/11/12 08:02:49;;;;;;;;;;;20.70;39.10;;;;;;481371;247;1511;-46
2021/11/12 08:04:56;;;;;;;;;;;20.80;39.20;;;;;;479562;248;1211;-45
2021/11/12 08:06:54;;;;;;;;;;;20.70;39.20;;;;;;480853;247;2282;-44
2021/11/12 08:08:56;;;;;;;;;;;20.70;39.20;;;;;;481151;247;2239;-45
2021/11/12 08:10:58;;;;;;;;;;;20.70;39.20;;;;;;479265;248;2178;-46
2021/11/12 08:13:01;;;;;;;;;;;20.70;39.30;;;;;;480928;247;2632;-46
2021/11/12 08:15:11;;;;;;;;;;;20.70;39.20;;;;;;481388;247;2657;-47
2021/11/12 08:17:26;;;;;;;;;;;20.70;39.20;;;;;;479551;248;2411;-45
2021/11/12 08:19:26;;;;;;;;;;;20.70;39.20;;;;;;481044;247;2251;-45
2021/11/12 08:21:30;;;;;;;;;;;20.70;39.20;;;;;;479514;248;2279;-45
2021/11/12 08:23:31;;;;;;;;;;;20.70;39.20;;;;;;481146;247;1906;-45
2021/11/12 08:25:37;;;;;;;;;;;20.70;39.20;;;;;;479589;248;2151;-46
2021/11/12 08:27:54;;;;;;;;;;;20.80;39.20;;;;;;480918;247;2336;-46
2021/11/12 08:30:00;;;;;;;;;;;20.80;39.20;;;;;;479380;248;2221;-46
2021/11/12 08:32:15;;;;;;;;;;;20.80;39.20;;;;;;480805;247;2118;-45
2021/11/12 08:34:14;;;;;;;;;;;20.80;39.20;;;;;;479431;248;2254;-46
2021/11/12 08:36:33;;;;;;;;;;;20.70;39.20;;;;;;480956;247;2333;-45
2021/11/12 08:38:33;;;;;;;;;;;20.70;39.20;;;;;;481083;247;2252;-45
2021/11/12 08:40:49;;;;;;;;;;;20.70;39.20;;;;;;481285;247;1383;-45
2021/11/12 08:42:46;;;;;;;;;;;20.70;39.20;;;;;;479413;248;2073;-45
2021/11/12 08:44:49;;;;;;;;;;;20.70;39.20;;;;;;480844;247;1868;-46
2021/11/12 08:46:52;;;;;;;;;;;20.70;39.20;;;;;;480952;247;1868;-45
2021/11/12 08:48:56;;;;;;;;;;;20.80;39.20;;;;;;479355;248;1508;-45
2021/11/12 08:50:55;;;;;;;;;;;20.80;39.20;;;;;;480958;247;2246;-46
2021/11/12 08:53:03;;;;;;;;;;;20.70;39.20;;;;;;480993;247;1115;-46
2021/11/12 08:55:03;;;;;;;;;;;20.80;39.20;;;;;;481029;247;2271;-45
2021/11/12 08:57:05;;;;;;;;;;;20.80;39.20;;;;;;479250;248;2231;-45
2021/11/12 08:59:02;;;;;;;;;;;20.80;39.20;;;;;;480959;247;1952;-45
2021/11/12 09:01:04;;;;;;;;;;;20.70;39.20;;;;;;479480;248;1645;-45
2021/11/12 09:03:05;;;;;;;;;;;20.70;39.20;;;;;;481353;247;1343;-45
2021/11/12 09:05:07;;;;;;;;;;;20.80;39.20;;;;;;479412;248;1117;-45
2021/11/12 09:07:09;;;;;;;;;;;20.80;39.30;;;;;;481106;247;1691;-45
2021/11/12 09:09:10;;;;;;;;;;;20.80;39.20;;;;;;479193;248;1380;-46
2021/11/12 09:11:11;;;;;;;;;;;20.80;39.30;;;;;;480934;247;2181;-46
2021/11/12 09:13:17;;;;;;;;;;;20.70;39.30;;;;;;479269;248;1244;-45
2021/11/12 09:15:21;;;;;;;;;;;20.80;39.30;;;;;;480725;247;1543;-46
2021/11/12 09:17:16;;;;;;;;;;;20.80;39.20;;;;;;479380;248;1442;-44
2021/11/12 09:19:17;;;;;;;;;;;20.80;39.20;;;;;;481357;247;2231;-46
2021/11/12 09:21:18;;;;;;;;;;;20.80;39.20;;;;;;479512;248;1176;-46
2021/11/12 09:23:19;;;;;;;;;;;20.80;39.20;;;;;;481257;247;1128;-45
2021/11/12 09:25:21;;;;;;;;;;;20.80;39.20;;;;;;479278;248;1259;-46
2021/11/12 09:27:22;;;;;;;;;;;20.80;39.30;;;;;;480965;247;1163;-45
2021/11/12 09:29:23;;;;;;;;;;;20.80;39.20;;;;;;481151;247;1071;-46
2021/11/12 09:31:25;;;;;;;;;;;20.80;39.30;;;;;;479428;248;2158;-45
2021/11/12 09:33:26;;;;;;;;;;;20.80;39.20;;;;;;481303;247;1298;-46
2021/11/12 09:35:28;;;;;;;;;;;20.80;39.20;;;;;;479230;248;1317;-45
2021/11/12 09:37:29;;;;;;;;;;;20.80;39.30;;;;;;480821;247;1187;-45
2021/11/12 09:39:30;;;;;;;;;;;20.80;39.20;;;;;;481320;247;1116;-46
2021/11/12 09:41:31;;;;;;;;;;;20.80;39.20;;;;;;481284;244;1306;-45
2021/11/12 09:43:33;;;;;;;;;;;20.80;39.10;;;;;;479517;248;1119;-45
2021/11/12 09:45:34;;;;;;;;;;;20.90;39.20;;;;;;481182;247;1231;-46
2021/11/12 09:47:36;;;;;;;;;;;20.90;39.10;;;;;;481149;247;1217;-45
2021/11/12 09:49:37;;;;;;;;;;;20.90;39.10;;;;;;479445;248;1187;-45
2021/11/12 09:51:38;;;;;;;;;;;20.80;39.10;;;;;;480974;247;2189;-46
2021/11/12 09:53:39;;;;;;;;;;;20.80;39.10;;;;;;479307;248;1099;-45
2021/11/12 09:55:41;;;;;;;;;;;20.80;39.10;;;;;;481095;247;1089;-45
2021/11/12 09:57:43;;;;;;;;;;;20.80;39.20;;;;;;479202;244;1284;-46
2021/11/12 09:59:43;;;;;;;;;;;20.90;39.20;;;;;;481257;247;1327;-46
2021/11/12 10:01:45;;;;;;;;;;;20.80;39.20;;;;;;481164;247;1550;-46
2021/11/12 10:03:47;;;;;;;;;;;20.80;39.20;;;;;;481206;243;1327;-45
2021/11/12 10:05:47;;;;;;;;;;;20.80;39.20;;;;;;479450;248;1281;-46
2021/11/12 10:07:49;;;;;;;;;;;20.80;39.20;;;;;;481103;247;1370;-46
2021/11/12 10:09:50;;;;;;;;;;;20.90;39.20;;;;;;479350;248;1111;-46
2021/11/12 10:11:52;;;;;;;;;;;20.80;39.20;;;;;;480966;247;2192;-46
2021/11/12 10:13:59;;;;;;;;;;;20.80;39.20;;;;;;481027;247;2024;-46
2021/11/12 10:16:13;;;;;;;;;;;20.80;39.20;;;;;;479270;248;1225;-46
2021/11/12 10:18:08;;;;;;;;;;;20.90;39.20;;;;;;480666;247;2324;-45
2021/11/12 10:20:09;;;;;;;;;;;20.80;39.20;;;;;;479348;248;1142;-45
2021/11/12 10:22:10;;;;;;;;;;;20.80;39.20;;;;;;480909;247;1301;-46
2021/11/12 10:24:15;;;;;;;;;;;20.80;39.30;;;;;;481134;247;1180;-46
2021/11/12 10:26:13;;;;;;;;;;;20.80;39.30;;;;;;479446;248;1439;-45
2021/11/12 10:28:15;;;;;;;;;;;20.80;39.40;;;;;;481243;247;1170;-47
2021/11/12 10:30:16;;;;;;;;;;;20.80;39.40;;;;;;479357;248;1150;-46
2021/11/12 10:32:18;;;;;;;;;;;20.80;39.40;;;;;;481282;247;2184;-46
2021/11/12 10:34:19;;;;;;;;;;;20.80;39.30;;;;;;479928;248;2241;-46
2021/11/12 10:36:20;;;;;;;;;;;20.80;39.30;;;;;;480921;244;1315;-46
2021/11/12 10:38:22;;;;;;;;;;;20.80;39.40;;;;;;479660;248;1058;-46
2021/11/12 10:40:23;;;;;;;;;;;20.80;39.30;;;;;;481983;247;1215;-46
2021/11/12 10:42:24;;;;;;;;;;;20.80;39.20;;;;;;481510;247;1160;-46
2021/11/12 10:44:26;;;;;;;;;;;20.80;39.30;;;;;;479722;248;1069;-46
2021/11/12 10:46:27;;;;;;;;;;;20.80;39.40;;;;;;481076;247;1411;-46
2021/11/12 10:48:28;;;;;;;;;;;20.80;39.40;;;;;;479879;248;1124;-45
2021/11/12 10:50:29;;;;;;;;;;;20.80;39.30;;;;;;481241;247;1125;-46
2021/11/12 10:52:31;;;;;;;;;;;20.80;39.30;;;;;;479389;248;2211;-46
2021/11/12 10:54:39;;;;;;;;;;;20.80;39.30;;;;;;481276;247;1190;-45
2021/11/12 10:56:35;;;;;;;;;;;20.80;39.30;;;;;;479521;248;2240;-45
2021/11/12 10:58:37;;;;;;;;;;;20.80;39.30;;;;;;481160;247;1106;-45
2021/11/12 11:00:39;;;;;;;;;;;20.80;39.30;;;;;;481047;247;1173;-45
2021/11/12 11:02:39;;;;;;;;;;;20.80;39.30;;;;;;480985;247;2342;-45
2021/11/12 11:04:42;;;;;;;;;;;20.80;39.30;;;;;;479410;248;1181;-45
2021/11/12 11:06:44;;;;;;;;;;;20.80;39.30;;;;;;481113;247;1241;-46
2021/11/12 11:08:45;;;;;;;;;;;20.80;39.30;;;;;;479386;248;1161;-45
2021/11/12 11:10:47;;;;;;;;;;;20.80;39.20;;;;;;481135;247;1184;-45
2021/11/12 11:12:48;;;;;;;;;;;20.80;39.30;;;;;;481406;247;2138;-45
2021/11/12 11:14:50;;;;;;;;;;;20.80;39.30;;;;;;481409;247;1261;-46
2021/11/12 11:16:51;;;;;;;;;;;20.80;39.30;;;;;;481106;247;1209;-45
2021/11/12 11:18:54;;;;;;;;;;;20.80;39.40;;;;;;479517;248;1264;-46
2021/11/12 11:20:56;;;;;;;;;;;20.80;39.30;;;;;;481094;247;2323;-46
2021/11/12 11:22:57;;;;;;;;;;;20.80;39.30;;;;;;481438;247;2044;-46
2021/11/12 11:24:57;;;;;;;;;;;20.90;39.40;;;;;;479508;248;2367;-45
2021/11/12 11:26:59;;;;;;;;;;;20.90;39.40;;;;;;481091;247;1319;-46
2021/11/12 11:29:00;;;;;;;;;;;20.90;39.30;;;;;;480040;248;1031;-45
2021/11/12 11:31:01;;;;;;;;;;;20.80;39.30;;;;;;481007;247;1297;-46
2021/11/12 11:33:03;;;;;;;;;;;20.80;39.40;;;;;;479253;248;2205;-46
2021/11/12 11:35:04;;;;;;;;;;;20.80;39.30;;;;;;481366;247;1109;-46
2021/11/12 11:37:05;;;;;;;;;;;20.80;39.40;;;;;;481264;247;1207;-45
2021/11/12 11:39:07;;;;;;;;;;;20.80;39.40;;;;;;481300;247;1199;-45
2021/11/12 11:41:08;;;;;;;;;;;20.90;39.40;;;;;;479446;248;1267;-46
2021/11/12 11:43:09;;;;;;;;;;;20.80;39.30;;;;;;481362;247;1082;-46
2021/11/12 11:45:11;;;;;;;;;;;20.80;39.30;;;;;;481368;247;1153;-45
2021/11/12 11:47:12;;;;;;;;;;;20.80;39.30;;;;;;479481;248;1138;-46
2021/11/12 11:49:13;;;;;;;;;;;20.80;39.30;;;;;;481287;247;1124;-46
2021/11/12 11:51:14;;;;;;;;;;;20.80;39.40;;;;;;479488;248;1063;-45
2021/11/12 11:53:16;;;;;;;;;;;20.80;39.40;;;;;;481144;247;2185;-45
2021/11/12 11:55:17;;;;;;;;;;;20.80;39.30;;;;;;479505;248;1103;-46
2021/11/12 11:57:18;;;;;;;;;;;20.80;39.40;;;;;;481309;247;1166;-45
2021/11/12 11:59:20;;;;;;;;;;;20.80;39.40;;;;;;479451;248;1190;-46
2021/11/12 12:01:22;;;;;;;;;;;20.80;39.30;;;;;;481095;247;1297;-45
2021/11/12 12:03:22;;;;;;;;;;;20.80;39.30;;;;;;481362;247;2191;-45
2021/11/12 12:05:24;;;;;;;;;;;20.80;39.30;;;;;;479395;248;1365;-46
2021/11/12 12:07:25;;;;;;;;;;;20.80;39.20;;;;;;481031;247;1226;-46
2021/11/12 12:09:28;;;;;;;;;;;20.80;39.20;;;;;;479375;248;1102;-45
2021/11/12 12:11:28;;;;;;;;;;;20.80;39.20;;;;;;481013;247;2036;-45
2021/11/12 12:13:29;;;;;;;;;;;20.80;39.20;;;;;;479679;248;2194;-46
2021/11/12 12:15:30;;;;;;;;;;;20.80;39.30;;;;;;481190;247;1171;-45
2021/11/12 12:17:32;;;;;;;;;;;20.80;39.20;;;;;;481780;247;1260;-46
2021/11/12 12:19:40;;;;;;;;;;;20.80;39.20;;;;;;481264;247;1129;-45
2021/11/12 12:31:00;;;;;;;;;;;20.80;39.10;;;;;;479441;248;1379;-45
2021/11/12 12:33:19;;;;;;;;;;;20.80;39.10;;;;;;481370;247;2197;-45
2021/11/12 13:22:17;;;;;;;;;;;20.80;38.90;;;;;;479446;248;1125;-45
2021/11/12 13:24:17;;;;;;;;;;;20.80;38.90;;;;;;480900;247;2029;-45
2021/11/12 13:26:16;;;;;;;;;;;20.70;38.90;;;;;;479436;248;1718;-46
2021/11/12 13:28:18;;;;;;;;;;;20.70;38.90;;;;;;481130;247;1379;-46
2021/11/12 13:30:19;;;;;;;;;;;20.70;38.90;;;;;;481134;247;1168;-46
2021/11/12 13:32:20;;;;;;;;;;;20.70;38.90;;;;;;479322;248;2194;-46
2021/11/12 13:34:22;;;;;;;;;;;20.70;38.80;;;;;;481216;247;1241;-46
2021/11/12 13:36:28;;;;;;;;;;;20.70;38.80;;;;;;481364;247;1089;-46
2021/11/12 13:38:27;;;;;;;;;;;20.80;38.80;;;;;;479540;248;1904;-46
2021/11/12 13:40:29;;;;;;;;;;;20.70;38.80;;;;;;481223;247;1259;-46
2021/11/12 13:42:30;;;;;;;;;;;20.70;38.80;;;;;;481118;247;1110;-46
2021/11/12 13:44:32;;;;;;;;;;;20.70;38.70;;;;;;479492;248;1180;-46
2021/11/12 13:46:33;;;;;;;;;;;20.80;38.80;;;;;;481344;247;1191;-45
2021/11/12 13:48:34;;;;;;;;;;;20.80;38.80;;;;;;481396;247;1427;-46
2021/11/12 13:50:35;;;;;;;;;;;20.80;38.70;;;;;;479433;248;1162;-46
2021/11/12 13:52:42;;;;;;;;;;;20.80;38.70;;;;;;481121;247;2125;-46
2021/11/12 13:54:38;;;;;;;;;;;20.80;38.70;;;;;;479526;248;2184;-46
2021/11/12 13:56:39;;;;;;;;;;;20.70;38.70;;;;;;481406;247;1212;-47
2021/11/12 13:58:41;;;;;;;;;;;20.80;38.80;;;;;;481348;247;1097;-46
2021/11/12 14:00:42;;;;;;;;;;;20.80;38.70;;;;;;479691;248;1102;-45
2021/11/12 14:02:43;;;;;;;;;;;20.80;38.70;;;;;;481368;247;1255;-45
2021/11/12 14:04:44;;;;;;;;;;;20.70;38.70;;;;;;479543;248;1222;-45
2021/11/12 14:06:47;;;;;;;;;;;20.70;38.70;;;;;;481385;247;1288;-45
2021/11/12 14:08:47;;;;;;;;;;;20.80;38.80;;;;;;479554;248;1989;-45
2021/11/12 14:10:49;;;;;;;;;;;20.70;38.70;;;;;;481319;243;1202;-46
2021/11/12 14:12:50;;;;;;;;;;;20.70;38.70;;;;;;479614;248;2197;-46
2021/11/12 14:14:51;;;;;;;;;;;20.80;38.70;;;;;;481289;247;1151;-45
2021/11/12 14:16:55;;;;;;;;;;;20.80;38.70;;;;;;479375;248;1226;-46
2021/11/12 14:19:02;;;;;;;;;;;20.80;38.70;;;;;;481111;247;2124;-45
2021/11/12 14:20:59;;;;;;;;;;;20.70;38.70;;;;;;481274;247;2519;-45
2021/11/12 14:23:00;;;;;;;;;;;20.70;38.70;;;;;;467160;255;1558;-45
2021/11/12 14:24:59;;;;;;;;;;;20.70;38.70;;;;;;479412;248;2592;-45
2021/11/12 14:27:04;;;;;;;;;;;20.70;38.60;;;;;;481259;247;1273;-46
2021/11/12 14:29:07;;;;;;;;;;;20.80;38.70;;;;;;479556;248;2317;-46
2021/11/12 14:31:14;;;;;;;;;;;20.80;38.60;;;;;;481193;247;2112;-45
2021/11/12 14:33:26;;;;;;;;;;;20.70;38.60;;;;;;479654;248;2178;-45
2021/11/12 14:35:41;;;;;;;;;;;20.70;38.60;;;;;;481177;247;2501;-46
2021/11/12 14:37:51;;;;;;;;;;;20.70;38.70;;;;;;481300;247;2258;-46
2021/11/12 14:39:51;;;;;;;;;;;20.70;38.70;;;;;;479561;248;1404;-45
2021/11/12 14:41:58;;;;;;;;;;;20.70;38.70;;;;;;481178;247;2041;-45
2021/11/12 14:46:18;;;;;;;;;;;20.70;38.60;;;;;;479660;247;1388;-45
2021/11/12 14:48:24;;;;;;;;;;;20.70;38.70;;;;;;479848;248;2029;-45
2021/11/12 14:50:30;;;;;;;;;;;20.70;38.60;;;;;;481088;247;2098;-45
2021/11/12 14:52:28;;;;;;;;;;;20.70;38.70;;;;;;479596;248;2366;-46
2021/11/12 14:54:30;;;;;;;;;;;20.70;38.70;;;;;;481311;247;2254;-47
2021/11/12 14:56:31;;;;;;;;;;;20.70;38.60;;;;;;479666;248;2027;-46
2021/11/12 14:58:33;;;;;;;;;;;20.70;38.60;;;;;;481237;247;2237;-46
2021/11/12 15:00:38;;;;;;;;;;;20.70;38.60;;;;;;479638;248;2513;-46
2021/11/12 15:02:35;;;;;;;;;;;20.70;38.60;;;;;;481528;247;1761;-46